Terminal Aerodrome Forecast
Issued by NWS Topeka, KS

Home | Current Version | Previous Version | Text Only | Print | Product List | Glossary On
Versions: 1 2 3 4 5 6 7 8 9 10 11 12 13 14 15 16
000
FTUS43 KTOP 132000 AAC
TAFTOP
TAF AMD
KTOP 132040Z 1321/1418 34014KT 4SM TSRA BR OVC035CB
      TEMPO 1321/1322 1SM +TSRA BR OVC015CB
     FM132200 35020G30KT 5SM BR OVC012
     FM141100 34018G25KT 4SM -SN OVC012
     FM141700 34015G22KT P6SM BKN035=

USA.gov is the U.S. government's official web portal to all federal, state and local government web resources and services.